Time;durP1;ratioP1;P1;durP2;ratioP2;P2;SDS_P1;SDS_P2;PMS_P1;PMS_P2;Temp;Humidity;BMP_temperature;BMP_pressure;BME280_temperature;BME280_humidity;BME280_pressure;Samples;Min_cycle;Max_cycle;Signal;HPM_P1;HPM_P2
2023/01/25 00:02:20;;;;;;;38.50;10.40;;;;;;;2.82;74.43;102219.41;5068843;28;20421;-45
2023/01/25 00:04:47;;;;;;;35.55;8.23;;;;;;;2.84;75.72;102214.38;5075409;28;20533;-46
2023/01/25 00:07:13;;;;;;;27.92;9.43;;;;;;;2.86;75.87;102205.09;5063088;28;20109;-46
2023/01/25 00:09:40;;;;;;;47.25;10.07;;;;;;;2.87;75.07;102200.88;5064952;28;20458;-46
2023/01/25 00:12:06;;;;;;;36.50;11.32;;;;;;;2.89;74.83;102200.19;5064318;28;20045;-47
2023/01/25 00:14:33;;;;;;;37.90;10.48;;;;;;;2.91;74.94;102201.16;5061449;28;20057;-46
2023/01/25 00:17:00;;;;;;;33.35;12.48;;;;;;;2.92;74.37;102199.50;5062029;28;20045;-47
2023/01/25 00:19:26;;;;;;;26.92;10.05;;;;;;;2.93;75.22;102198.69;5067195;28;20040;-45
2023/01/25 00:21:53;;;;;;;35.17;12.00;;;;;;;2.93;75.35;102191.03;5058274;28;20045;-46
2023/01/25 00:24:21;;;;;;;32.40;12.07;;;;;;;2.95;75.79;102194.56;5062468;28;20098;-45
2023/01/25 00:26:48;;;;;;;31.88;11.82;;;;;;;2.95;75.64;102197.13;5069570;28;20048;-46
2023/01/25 00:29:15;;;;;;;33.45;12.60;;;;;;;2.97;75.69;102200.66;5066691;28;20049;-45
2023/01/25 00:34:43;;;;;;;31.63;8.00;;;;;;;2.97;75.18;102198.09;5003652;28;20414;-46
2023/01/25 00:37:40;;;;;;;34.88;9.63;;;;;;;2.96;74.78;102206.59;5007348;28;20065;-45
2023/01/25 00:40:09;;;;;;;27.15;8.02;;;;;;;2.97;75.17;102208.34;4992701;28;20046;-47
2023/01/25 00:42:36;;;;;;;27.40;7.85;;;;;;;2.98;75.21;102207.56;5000406;28;20165;-46
2023/01/25 00:45:03;;;;;;;31.98;9.70;;;;;;;2.98;75.18;102207.56;4985337;28;20074;-45
2023/01/25 00:47:29;;;;;;;38.50;8.65;;;;;;;2.99;74.43;102200.75;4982360;28;20058;-46
2023/01/25 00:49:56;;;;;;;31.83;8.00;;;;;;;2.99;75.00;102193.09;4981197;28;20054;-46
2023/01/25 00:52:22;;;;;;;34.67;8.23;;;;;;;3.00;74.90;102198.31;4983110;28;20105;-46
2023/01/25 00:54:49;;;;;;;32.92;7.88;;;;;;;3.00;75.50;102195.75;4980559;28;20054;-46
2023/01/25 00:57:16;;;;;;;38.10;8.98;;;;;;;3.01;75.11;102194.09;4981747;28;20169;-45
2023/01/25 00:59:43;;;;;;;33.38;8.75;;;;;;;3.00;74.63;102192.31;4980826;28;20547;-47
2023/01/25 01:02:11;;;;;;;34.45;8.10;;;;;;;3.00;74.86;102177.81;4980491;28;20130;-46
2023/01/25 01:04:38;;;;;;;32.65;8.27;;;;;;;2.99;75.77;102181.19;4980399;28;20046;-46
2023/01/25 01:07:05;;;;;;;31.45;8.73;;;;;;;3.00;75.22;102182.06;4979805;28;20051;-46
2023/01/25 01:09:32;;;;;;;35.80;9.40;;;;;;;3.00;75.72;102182.06;4981805;28;20101;-46
2023/01/25 01:11:59;;;;;;;44.95;9.95;;;;;;;2.99;75.86;102178.63;4979597;28;20042;-46
2023/01/25 01:14:26;;;;;;;38.40;8.10;;;;;;;2.99;74.88;102176.06;4993294;28;20125;-46
2023/01/25 01:16:53;;;;;;;29.73;8.63;;;;;;;3.00;75.83;102172.69;4982167;28;20093;-46
2023/01/25 01:19:22;;;;;;;38.30;9.95;;;;;;;3.01;75.59;102165.91;4981479;28;20066;-46
2023/01/25 01:21:49;;;;;;;34.38;9.32;;;;;;;3.00;75.75;102162.47;4981087;28;20173;-46
2023/01/25 01:24:16;;;;;;;35.97;8.73;;;;;;;2.99;75.95;102165.81;4981143;28;20069;-46
2023/01/25 01:26:43;;;;;;;46.67;9.15;;;;;;;2.97;75.06;102167.38;4981428;28;20046;-45
2023/01/25 01:29:10;;;;;;;33.90;8.75;;;;;;;2.95;75.80;102168.97;4982234;28;20058;-47
2023/01/25 01:31:36;;;;;;;31.35;8.45;;;;;;;2.94;75.81;102172.34;4981196;28;20050;-45
2023/01/25 01:34:03;;;;;;;33.22;9.10;;;;;;;2.95;75.72;102174.09;4980835;28;20125;-46
2023/01/25 01:36:30;;;;;;;34.30;8.32;;;;;;;2.94;75.06;102169.78;4981171;28;20057;-45
2023/01/25 01:38:58;;;;;;;30.92;7.10;;;;;;;2.95;75.11;102169.84;4981099;28;20050;-47
2023/01/25 01:41:25;;;;;;;32.35;7.30;;;;;;;2.96;75.34;102168.19;4977776;28;20050;-46
2023/01/25 01:43:52;;;;;;;21.90;5.80;;;;;;;2.97;75.62;102166.50;4979104;28;20046;-45
2023/01/25 01:54:36;;;;;;;32.47;8.60;;;;;;;3.13;76.46;102160.66;5031075;27;20916;-47
2023/01/25 01:57:24;;;;;;;32.50;7.15;;;;;;;3.11;75.75;102172.50;4984321;28;20073;-47
2023/01/25 01:59:59;;;;;;;39.78;8.57;;;;;;;3.11;75.84;102177.63;4981291;28;20074;-46
2023/01/25 02:02:26;;;;;;;27.13;7.68;;;;;;;3.11;76.25;102173.41;4978932;28;20054;-45
2023/01/25 02:04:59;;;;;;;29.52;7.47;;;;;;;3.10;76.27;102171.59;4984175;28;20051;-45
2023/01/25 02:07:33;;;;;;;42.42;8.25;;;;;;;3.10;76.47;102179.28;4982530;28;20055;-45
2023/01/25 02:10:03;;;;;;;55.58;8.25;;;;;;;3.07;76.12;102179.97;4978963;28;20234;-47
2023/01/25 02:12:30;;;;;;;41.97;7.32;;;;;;;3.04;76.07;102179.78;4972417;28;20062;-46
2023/01/25 02:14:57;;;;;;;36.85;8.38;;;;;;;3.01;76.19;102169.34;4983471;28;20054;-45
2023/01/25 02:17:31;;;;;;;47.25;8.93;;;;;;;2.98;76.40;102166.63;4981097;28;20714;-47
2023/01/25 02:20:24;;;;;;;29.30;8.48;;;;;;;2.97;75.79;102156.28;4981424;28;20070;-47
2023/01/25 02:25:43;;;;;;;34.70;8.20;;;;;;;2.96;75.73;102160.50;4999146;27;20416;-46
2023/01/25 02:28:17;;;;;;;32.78;7.72;;;;;;;2.97;76.70;102146.03;4986912;28;20516;-44
2023/01/25 02:30:44;;;;;;;31.25;7.35;;;;;;;2.97;76.53;102146.91;4989444;28;20050;-48
2023/01/25 02:33:11;;;;;;;34.33;8.63;;;;;;;2.98;75.79;102143.56;4987110;28;20472;-47
2023/01/25 02:38:16;;;;;;;30.45;9.90;;;;;;;3.00;75.85;102141.13;5097199;27;20419;-46
2023/01/25 02:43:28;;;;;;;59.75;12.52;;;;;;;3.45;75.89;102137.00;5025620;27;20414;-47
2023/01/25 02:46:02;;;;;;;36.42;9.68;;;;;;;3.19;76.11;102138.00;5000425;28;20458;-48
2023/01/25 02:48:29;;;;;;;33.65;7.38;;;;;;;3.12;76.02;102135.84;5006747;28;20457;-45
2023/01/25 02:50:56;;;;;;;35.13;10.10;;;;;;;3.08;76.87;102140.78;4999879;28;20053;-47
2023/01/25 02:53:22;;;;;;;33.75;8.65;;;;;;;3.06;75.96;102137.25;5000770;28;20037;-45
2023/01/25 02:55:49;;;;;;;32.42;8.30;;;;;;;3.04;75.78;102135.38;5002345;28;20693;-45
2023/01/25 02:58:16;;;;;;;28.88;7.72;;;;;;;3.02;76.56;102124.16;4998736;28;20501;-47
2023/01/25 03:00:43;;;;;;;31.88;8.32;;;;;;;3.00;75.60;102128.31;5004251;28;20046;-45
2023/01/25 03:03:09;;;;;;;30.83;8.90;;;;;;;2.98;76.33;102128.22;4999617;28;20462;-45
2023/01/25 03:05:36;;;;;;;30.10;8.00;;;;;;;2.97;76.70;102125.56;4999339;28;20046;-45
2023/01/25 03:08:03;;;;;;;29.38;8.23;;;;;;;2.94;75.78;102122.00;4997393;28;20548;-46
2023/01/25 03:10:29;;;;;;;28.92;7.55;;;;;;;2.94;75.69;102127.13;5002828;28;20073;-46
2023/01/25 03:12:56;;;;;;;32.97;8.88;;;;;;;2.93;76.72;102130.47;5000185;28;20050;-47
2023/01/25 03:15:23;;;;;;;30.10;8.63;;;;;;;2.90;76.02;102122.59;4995438;28;21799;-45
2023/01/25 03:17:49;;;;;;;28.10;8.15;;;;;;;2.89;75.79;102122.50;5000943;28;20058;-47
2023/01/25 03:20:16;;;;;;;30.17;7.55;;;;;;;2.86;76.57;102125.75;5004141;28;20077;-45
2023/01/25 03:22:43;;;;;;;28.58;7.78;;;;;;;2.86;75.76;102127.44;5002520;28;20042;-45
2023/01/25 03:25:10;;;;;;;23.48;7.10;;;;;;;2.85;75.57;102130.78;5007607;28;20050;-45
2023/01/25 03:27:37;;;;;;;37.95;8.00;;;;;;;2.81;77.01;102125.47;5001675;28;20054;-45
2023/01/25 03:30:04;;;;;;;28.00;7.70;;;;;;;2.81;75.60;102114.38;5005132;28;20046;-45
2023/01/25 03:32:30;;;;;;;30.25;7.38;;;;;;;2.79;75.89;102119.38;5002723;28;20129;-46
2023/01/25 03:34:58;;;;;;;27.23;7.05;;;;;;;2.77;75.97;102113.25;5000250;28;20053;-45
2023/01/25 03:37:28;;;;;;;31.38;6.85;;;;;;;2.76;77.02;102116.63;5007153;28;20339;-45
2023/01/25 03:39:56;;;;;;;30.90;7.47;;;;;;;2.74;76.21;102113.09;5001405;28;20089;-45
2023/01/25 03:42:23;;;;;;;25.90;6.78;;;;;;;2.75;76.51;102107.19;5004792;28;20199;-45
2023/01/25 03:44:50;;;;;;;29.95;6.93;;;;;;;2.75;75.81;102112.31;5004360;28;20064;-45
2023/01/25 03:47:17;;;;;;;38.40;7.72;;;;;;;2.75;75.69;102112.31;4998438;28;20065;-45
2023/01/25 03:49:43;;;;;;;27.38;7.10;;;;;;;2.75;75.68;102108.84;5000164;28;20462;-46
2023/01/25 03:52:10;;;;;;;28.48;7.00;;;;;;;2.75;76.29;102099.50;5004320;28;20038;-46
2023/01/25 03:54:37;;;;;;;28.00;7.60;;;;;;;2.75;76.90;102099.50;4986553;28;20066;-45
2023/01/25 03:57:04;;;;;;;26.75;7.13;;;;;;;2.75;76.10;102104.63;4989034;28;20394;-45
2023/01/25 03:59:30;;;;;;;22.85;6.57;;;;;;;2.73;76.25;102103.63;4989896;28;20097;-45
2023/01/25 04:01:57;;;;;;;25.70;6.57;;;;;;;2.74;76.22;102100.31;4988154;28;20128;-46
2023/01/25 04:04:24;;;;;;;21.52;6.82;;;;;;;2.72;76.73;102109.53;4988628;28;20337;-46
2023/01/25 04:06:51;;;;;;;30.38;6.28;;;;;;;2.73;75.84;102113.88;4983550;28;20093;-45
2023/01/25 04:09:18;;;;;;;28.13;6.70;;;;;;;2.72;75.99;102104.44;4987404;28;20046;-45
2023/01/25 04:11:48;;;;;;;27.10;6.53;;;;;;;2.72;76.99;102104.44;4986838;28;20162;-45
2023/01/25 04:14:15;;;;;;;32.72;7.05;;;;;;;2.74;76.85;102104.53;4985126;28;20058;-46
2023/01/25 04:16:42;;;;;;;23.13;5.60;;;;;;;2.71;76.10;102095.00;4986247;28;20057;-46
2023/01/25 04:19:09;;;;;;;26.63;6.35;;;;;;;2.73;76.93;102098.50;4985836;28;20145;-46
2023/01/25 04:21:36;;;;;;;25.77;6.10;;;;;;;2.74;76.40;102096.84;4987704;28;20115;-45
2023/01/25 04:24:03;;;;;;;34.10;6.13;;;;;;;2.74;77.00;102097.75;4983880;28;20054;-47
2023/01/25 04:26:29;;;;;;;26.08;5.78;;;;;;;2.74;76.07;102096.84;4991389;28;20391;-45
2023/01/25 04:28:56;;;;;;;20.67;5.43;;;;;;;2.74;77.12;102090.06;4987422;28;20119;-44
2023/01/25 04:31:23;;;;;;;33.65;6.30;;;;;;;2.73;76.43;102084.84;4988354;28;20112;-47
2023/01/25 04:33:50;;;;;;;17.88;5.07;;;;;;;2.71;76.38;102084.75;4984562;28;20073;-45
2023/01/25 04:36:16;;;;;;;34.17;7.22;;;;;;;2.70;76.46;102082.97;4989338;28;20057;-45
2023/01/25 04:38:43;;;;;;;25.25;5.75;;;;;;;2.69;77.31;102078.63;4987678;28;20058;-45
2023/01/25 04:41:10;;;;;;;21.02;5.75;;;;;;;2.69;76.51;102070.97;4986737;28;20084;-46
2023/01/25 04:43:37;;;;;;;21.25;5.88;;;;;;;2.69;77.45;102068.41;4986158;28;20560;-47
2023/01/25 04:46:04;;;;;;;19.13;4.93;;;;;;;2.69;76.94;102060.72;4986139;28;20676;-46
2023/01/25 04:48:31;;;;;;;19.70;5.50;;;;;;;2.70;76.56;102070.16;4985386;28;20499;-47
2023/01/25 04:50:58;;;;;;;18.45;5.68;;;;;;;2.67;77.06;102064.88;4979409;28;20803;-45
2023/01/25 04:53:25;;;;;;;19.35;5.30;;;;;;;2.67;76.92;102065.75;4988488;28;20054;-47
2023/01/25 04:55:51;;;;;;;30.35;5.20;;;;;;;2.68;77.70;102054.75;4989220;28;20093;-46
2023/01/25 04:58:18;;;;;;;23.42;5.68;;;;;;;2.69;77.67;102053.03;4985317;28;20085;-46
2023/01/25 05:00:45;;;;;;;17.05;4.78;;;;;;;2.70;77.63;102047.13;4987333;28;20403;-44
2023/01/25 05:03:12;;;;;;;17.00;4.60;;;;;;;2.71;76.28;102046.38;4987907;28;20162;-45
2023/01/25 05:05:45;;;;;;;20.48;5.18;;;;;;;2.70;77.03;102040.34;4984644;28;20097;-45
2023/01/25 05:08:11;;;;;;;24.23;4.60;;;;;;;2.73;76.45;102049.88;4987093;28;20070;-45
2023/01/25 05:10:38;;;;;;;27.38;4.55;;;;;;;2.70;77.71;102047.13;4986780;28;20042;-45
2023/01/25 05:13:05;;;;;;;16.70;5.45;;;;;;;2.72;76.83;102054.91;4985053;28;20050;-45
2023/01/25 05:15:31;;;;;;;16.58;3.65;;;;;;;2.73;77.50;102056.69;4986345;28;20046;-45
2023/01/25 05:17:58;;;;;;;35.75;4.60;;;;;;;2.72;77.42;102053.25;4989442;28;20042;-48
2023/01/25 05:20:25;;;;;;;23.83;6.00;;;;;;;2.73;77.84;102044.78;4984359;28;20054;-45
2023/01/25 05:22:51;;;;;;;23.02;5.43;;;;;;;2.71;77.55;102048.94;4986562;28;20454;-45
2023/01/25 05:28:06;;;;;;;32.97;6.18;;;;;;;2.66;77.06;102043.50;4986706;28;20049;-45
2023/01/25 05:30:33;;;;;;;26.23;5.15;;;;;;;2.66;78.18;102040.06;4965932;28;20130;-45
2023/01/25 05:33:00;;;;;;;25.25;4.78;;;;;;;2.66;76.89;102037.50;4988481;28;20053;-47
2023/01/25 05:35:27;;;;;;;29.50;4.25;;;;;;;2.67;77.70;102034.19;4983412;28;20068;-45
2023/01/25 05:37:56;;;;;;;26.38;5.35;;;;;;;2.68;76.91;102028.25;4987949;28;20057;-45
2023/01/25 05:40:25;;;;;;;21.17;4.20;;;;;;;2.66;77.95;102032.38;4985550;28;20054;-45
2023/01/25 05:42:56;;;;;;;27.38;4.13;;;;;;;2.67;78.12;102027.38;4981475;28;20044;-46
2023/01/25 05:45:23;;;;;;;26.98;4.35;;;;;;;2.67;76.86;102031.63;4984907;28;20050;-46
2023/01/25 05:47:53;;;;;;;19.25;4.75;;;;;;;2.67;77.76;102021.38;4982942;28;20057;-45
2023/01/25 05:50:20;;;;;;;17.20;4.80;;;;;;;2.67;78.05;102021.38;4985739;28;20054;-45
2023/01/25 05:52:47;;;;;;;16.33;4.38;;;;;;;2.67;78.25;102011.16;4983440;28;20498;-45
2023/01/25 05:55:14;;;;;;;15.00;4.78;;;;;;;2.65;78.44;102011.03;4979650;28;20058;-46
2023/01/25 05:57:41;;;;;;;24.63;5.05;;;;;;;2.68;78.23;102012.91;4984855;28;20138;-48
2023/01/25 06:00:09;;;;;;;28.00;5.22;;;;;;;2.66;77.36;102007.69;4986066;28;20038;-46
2023/01/25 06:02:36;;;;;;;19.02;3.97;;;;;;;2.67;77.17;102008.59;4983218;28;20050;-45
2023/01/25 06:05:03;;;;;;;11.73;4.38;;;;;;;2.66;78.41;102006.78;4979512;28;20132;-45
2023/01/25 06:07:35;;;;;;;18.35;3.55;;;;;;;2.66;78.45;102009.34;4973893;28;20133;-47
2023/01/25 06:10:03;;;;;;;20.38;3.97;;;;;;;2.66;77.97;102002.56;4974173;28;20079;-46
2023/01/25 06:12:30;;;;;;;15.77;4.05;;;;;;;2.66;78.19;101994.00;4985892;28;20522;-46
2023/01/25 06:14:56;;;;;;;19.05;4.53;;;;;;;2.66;77.28;101992.34;4984095;28;20046;-47
2023/01/25 06:17:23;;;;;;;13.35;4.32;;;;;;;2.66;77.60;101996.56;4985652;28;20080;-45
2023/01/25 06:19:50;;;;;;;13.70;3.10;;;;;;;2.66;77.63;101999.13;4984451;28;20066;-45
2023/01/25 06:22:16;;;;;;;13.63;3.63;;;;;;;2.66;78.51;101996.56;4987261;28;20113;-45
2023/01/25 06:24:43;;;;;;;11.95;4.20;;;;;;;2.65;77.37;101994.81;4983798;28;20046;-46
2023/01/25 06:27:11;;;;;;;19.50;4.13;;;;;;;2.62;77.43;101990.38;4987711;28;20121;-46
2023/01/25 06:29:38;;;;;;;18.15;4.18;;;;;;;2.57;77.73;101987.53;4985246;28;20054;-46
2023/01/25 06:32:05;;;;;;;15.05;3.28;;;;;;;2.59;78.28;101996.97;4982832;28;20054;-47
2023/01/25 06:34:31;;;;;;;12.98;3.22;;;;;;;2.60;78.30;101991.09;4982536;28;20410;-46
2023/01/25 06:36:58;;;;;;;16.77;4.07;;;;;;;2.60;77.67;101991.94;4985023;28;20066;-45
2023/01/25 06:39:25;;;;;;;14.23;3.10;;;;;;;2.59;77.92;101989.28;4981644;28;20050;-44
2023/01/25 06:41:51;;;;;;;11.32;2.95;;;;;;;2.58;78.45;101988.44;4985043;28;20045;-47
2023/01/25 06:44:18;;;;;;;17.23;3.42;;;;;;;2.60;78.97;101991.09;4979483;28;20129;-45
2023/01/25 06:46:45;;;;;;;13.27;3.70;;;;;;;2.59;78.49;101985.06;4982607;28;20046;-45
2023/01/25 06:49:12;;;;;;;10.05;3.40;;;;;;;2.60;78.82;101991.09;4983224;28;20109;-45
2023/01/25 06:51:38;;;;;;;12.35;3.80;;;;;;;2.62;78.44;101994.59;4980233;28;20074;-48
2023/01/25 06:54:05;;;;;;;13.10;3.72;;;;;;;2.62;78.46;101995.50;4985348;28;20050;-44
2023/01/25 06:56:32;;;;;;;8.63;3.47;;;;;;;2.64;78.63;101990.47;4984929;28;20050;-45
2023/01/25 06:58:58;;;;;;;10.90;3.60;;;;;;;2.66;78.71;101981.22;4987096;28;20050;-47
2023/01/25 07:01:29;;;;;;;11.13;3.03;;;;;;;2.68;78.30;101989.88;4984566;28;20113;-45
2023/01/25 07:03:57;;;;;;;;;;;;;;;2.65;77.70;101984.56;4984752;28;20073;-45
2023/01/25 07:06:25;;;;;;;10.48;3.25;;;;;;;2.71;78.28;101984.94;4982790;28;20425;-46
2023/01/25 07:08:52;;;;;;;10.25;3.10;;;;;;;2.72;78.25;101986.72;4964382;28;20073;-46
2023/01/25 07:11:19;;;;;;;10.45;3.47;;;;;;;2.73;77.34;101988.47;4985485;28;20050;-46
2023/01/25 07:13:46;;;;;;;10.15;3.20;;;;;;;2.72;78.40;101984.16;4989144;28;20540;-47
2023/01/25 07:16:16;;;;;;;9.70;3.22;;;;;;;2.74;78.25;101984.25;4981928;28;20488;-47
2023/01/25 07:18:43;;;;;;;18.08;3.75;;;;;;;2.74;78.42;101980.03;4980171;28;20133;-46
2023/01/25 07:21:14;;;;;;;15.90;3.72;;;;;;;2.73;77.48;101980.78;4982867;28;20133;-46
2023/01/25 07:23:41;;;;;;;12.65;3.40;;;;;;;2.75;77.13;101986.00;4976978;28;20057;-46
2023/01/25 07:26:25;;;;;;;13.02;3.90;;;;;;;2.71;77.36;101990.06;4984151;28;20564;-46
2023/01/25 07:28:52;;;;;;;;;;;;;;;2.68;78.46;101979.63;4988885;28;20545;-47
2023/01/25 07:31:19;;;;;;;10.45;3.30;;;;;;;2.70;77.71;101973.81;4978971;28;19937;-52
2023/01/25 07:33:48;;;;;;;10.73;3.70;;;;;;;2.72;77.99;101973.91;4980809;28;20114;-44
2023/01/25 07:36:15;;;;;;;18.70;5.97;;;;;;;2.73;77.94;101973.13;4979463;28;20097;-47
2023/01/25 07:38:42;;;;;;;21.27;7.75;;;;;;;2.74;76.96;101964.66;4984711;28;20130;-45
2023/01/25 07:41:09;;;;;;;19.65;5.15;;;;;;;2.75;77.05;101956.19;4978040;28;20589;-45
2023/01/25 07:43:36;;;;;;;13.23;5.75;;;;;;;2.75;78.13;101951.06;4978487;28;20140;-47
2023/01/25 07:46:06;;;;;;;19.65;4.93;;;;;;;2.74;78.47;101949.31;4982609;28;20046;-47
2023/01/25 07:48:33;;;;;;;19.85;5.78;;;;;;;2.73;77.95;101950.09;4979180;28;20054;-46
2023/01/25 07:51:10;;;;;;;40.60;11.88;;;;;;;2.74;78.17;101954.44;4977486;28;20051;-46
2023/01/25 07:53:38;;;;;;;;;;;;;;;2.66;77.46;101950.50;4974867;28;20470;-46
2023/01/25 07:56:06;;;;;;;12.20;3.63;;;;;;;2.69;78.40;101948.13;4977896;28;19929;-45
2023/01/25 07:58:33;;;;;;;22.90;4.30;;;;;;;2.68;78.00;101938.69;4994345;28;20050;-46
2023/01/25 08:01:10;;;;;;;14.45;4.25;;;;;;;2.65;78.51;101934.28;4984863;28;20058;-46
2023/01/25 08:03:37;;;;;;;16.55;3.72;;;;;;;2.65;78.22;101938.50;4975971;28;20053;-46
2023/01/25 08:06:04;;;;;;;15.00;3.00;;;;;;;2.66;77.37;101945.38;4977536;28;20670;-46
2023/01/25 08:08:33;;;;;;;21.73;4.88;;;;;;;2.66;78.02;101937.72;4978994;28;20128;-45
2023/01/25 08:11:07;;;;;;;15.32;4.00;;;;;;;2.69;77.76;101940.47;4980605;28;20494;-45
2023/01/25 08:13:34;;;;;;;15.80;4.63;;;;;;;2.70;78.64;101937.09;4980676;28;20069;-48
2023/01/25 08:16:00;;;;;;;13.85;4.03;;;;;;;2.72;77.62;101934.63;4982069;28;20074;-46
2023/01/25 08:18:27;;;;;;;18.15;5.38;;;;;;;2.74;78.16;101933.06;4976906;28;20081;-44
2023/01/25 08:20:58;;;;;;;26.00;6.88;;;;;;;2.76;78.05;101932.38;4980948;28;20046;-46
2023/01/25 08:23:25;;;;;;;22.40;6.85;;;;;;;2.77;77.78;101930.69;4981739;28;20274;-45
2023/01/25 08:25:52;;;;;;;18.00;6.57;;;;;;;2.77;77.46;101929.00;4986621;28;20419;-46
2023/01/25 08:28:18;;;;;;;19.10;5.18;;;;;;;2.78;78.40;101930.78;4986681;28;20050;-45
2023/01/25 08:30:45;;;;;;;24.27;5.57;;;;;;;2.78;78.71;101920.56;4986306;28;20086;-45
2023/01/25 08:33:22;;;;;;;22.63;6.30;;;;;;;2.79;77.57;101914.63;4988948;28;20042;-45
2023/01/25 08:35:55;;;;;;;19.10;4.15;;;;;;;2.81;78.14;101915.59;4986192;28;20056;-45
2023/01/25 08:38:22;;;;;;;14.18;5.05;;;;;;;2.83;77.96;101926.81;4986361;28;20077;-48
2023/01/25 08:40:49;;;;;;;28.02;5.70;;;;;;;2.85;78.72;101926.03;4990656;28;20077;-46
2023/01/25 08:43:15;;;;;;;17.23;5.32;;;;;;;2.87;77.77;101919.34;4992335;28;20049;-46
2023/01/25 08:45:42;;;;;;;26.88;6.80;;;;;;;2.90;78.25;101915.25;4996272;28;20049;-45
2023/01/25 08:48:11;;;;;;;24.60;7.68;;;;;;;2.93;77.94;101909.44;4987676;28;20427;-45
2023/01/25 08:50:38;;;;;;;23.60;6.50;;;;;;;2.95;78.42;101903.59;4985567;28;20148;-46
2023/01/25 08:53:05;;;;;;;18.88;5.85;;;;;;;3.02;77.80;101898.84;4993224;28;20046;-46
2023/01/25 08:55:34;;;;;;;20.65;7.10;;;;;;;3.06;77.75;101895.69;4990752;28;20209;-47
2023/01/25 08:58:01;;;;;;;18.92;6.53;;;;;;;3.10;77.76;101896.75;4988437;28;20105;-44
2023/01/25 09:00:28;;;;;;;18.15;6.55;;;;;;;3.10;77.61;101891.63;4988592;28;20076;-47
2023/01/25 09:02:54;;;;;;;21.70;5.63;;;;;;;3.14;77.60;101875.66;4991215;28;20041;-47
2023/01/25 09:05:21;;;;;;;20.17;5.72;;;;;;;3.15;77.59;101874.84;4989879;28;20046;-44
2023/01/25 09:07:48;;;;;;;17.08;4.72;;;;;;;3.19;77.86;101871.66;4985723;28;20141;-47
2023/01/25 09:10:15;;;;;;;12.40;4.10;;;;;;;3.23;77.88;101863.34;4989036;28;20054;-45
2023/01/25 09:12:41;;;;;;;21.85;6.07;;;;;;;3.26;78.62;101857.53;4989041;28;20038;-46
2023/01/25 09:15:08;;;;;;;17.30;4.75;;;;;;;3.30;78.32;101847.53;4987264;28;20058;-46
2023/01/25 09:17:37;;;;;;;16.20;5.22;;;;;;;3.32;77.61;101843.38;4987798;28;20081;-46
2023/01/25 09:20:06;;;;;;;18.77;5.75;;;;;;;3.37;78.34;101835.09;4985515;28;20057;-45
2023/01/25 09:22:33;;;;;;;14.15;4.18;;;;;;;3.37;77.90;101828.28;4981108;28;20199;-47
2023/01/25 09:25:00;;;;;;;16.55;4.55;;;;;;;3.37;78.51;101829.97;4988018;28;20046;-44
2023/01/25 09:27:27;;;;;;;16.92;5.47;;;;;;;3.37;78.13;101820.59;4990797;28;20085;-45
2023/01/25 09:29:53;;;;;;;29.02;6.40;;;;;;;3.41;78.57;101821.66;4981875;28;20121;-45
2023/01/25 09:32:28;;;;;;;18.25;5.00;;;;;;;3.41;77.92;101806.28;4989889;28;20101;-47
2023/01/25 09:34:55;;;;;;;17.30;4.38;;;;;;;3.43;78.01;101802.13;4990009;28;20044;-45
2023/01/25 09:37:22;;;;;;;18.70;6.57;;;;;;;3.51;78.31;101808.53;4988103;28;20050;-44
2023/01/25 09:39:48;;;;;;;22.50;5.63;;;;;;;3.55;77.92;101800.22;4994035;28;20046;-46
2023/01/25 09:51:05;;;;;;;15.93;5.70;;;;;;;3.68;77.90;101775.28;5055323;28;20391;-45
2023/01/25 09:53:39;;;;;;;51.53;7.22;;;;;;;3.70;78.17;101773.66;5020543;28;20137;-45
2023/01/25 09:58:49;;;;;;;41.03;5.95;;;;;;;3.80;78.05;101770.78;5017287;27;20419;-45
2023/01/25 10:01:30;;;;;;;28.75;8.30;;;;;;;3.85;78.41;101761.66;5018423;28;20096;-46
2023/01/25 10:04:13;;;;;;;39.65;6.93;;;;;;;3.94;78.42;101757.81;5017231;28;20054;-47
2023/01/25 10:06:44;;;;;;;29.15;4.80;;;;;;;3.94;78.68;101753.56;5021018;28;20038;-46
2023/01/25 10:09:38;;;;;;;24.58;5.90;;;;;;;3.96;78.41;101746.81;5017485;28;20117;-45
2023/01/25 10:12:18;;;;;;;31.33;5.13;;;;;;;3.97;78.05;101740.03;5021983;28;20644;-47
2023/01/25 10:14:45;;;;;;;24.40;5.80;;;;;;;4.01;77.86;101739.38;5017744;28;20049;-45
2023/01/25 10:22:54;;;;;;;31.70;6.30;;;;;;;4.11;78.00;101735.59;5021064;27;20406;-48
2023/01/25 10:25:33;;;;;;;42.97;7.57;;;;;;;4.15;78.19;101723.84;5012665;28;20068;-46
2023/01/25 10:31:02;;;;;;;22.13;7.30;;;;;;;4.19;78.58;101729.19;5037307;27;20414;-46
2023/01/25 10:33:34;;;;;;;32.42;6.88;;;;;;;4.22;78.43;101728.47;5018312;28;20046;-47
2023/01/25 10:36:04;;;;;;;34.67;7.80;;;;;;;4.28;78.49;101718.50;5023853;28;20050;-47
2023/01/25 10:38:38;;;;;;;26.80;8.63;;;;;;;4.34;77.93;101712.81;5014462;28;20402;-48
2023/01/25 10:43:46;;;;;;;17.95;5.45;;;;;;;4.48;78.19;101709.25;5019043;28;20758;-48
2023/01/25 10:46:24;;;;;;;15.90;6.57;;;;;;;4.55;78.30;101697.59;5016893;28;20068;-46
2023/01/25 10:48:51;;;;;;;18.23;4.85;;;;;;;4.60;78.17;101684.97;5004509;28;20441;-47
2023/01/25 10:51:34;;;;;;;18.48;6.35;;;;;;;4.60;78.25;101693.53;5018474;28;20052;-47
2023/01/25 10:54:04;;;;;;;17.38;6.00;;;;;;;4.65;77.89;101698.03;4998911;28;20045;-48
2023/01/25 10:56:34;;;;;;;18.52;7.90;;;;;;;4.67;77.95;101691.28;5005566;28;20115;-49
2023/01/25 10:59:15;;;;;;;28.42;7.65;;;;;;;4.70;78.04;101670.91;5002142;28;20204;-47
2023/01/25 11:01:42;;;;;;;19.98;5.78;;;;;;;4.77;78.37;101667.81;4994960;28;20047;-46
2023/01/25 11:04:31;;;;;;;13.23;5.05;;;;;;;4.79;77.63;101661.06;4995611;28;20085;-46
2023/01/25 11:06:59;;;;;;;15.95;5.80;;;;;;;4.87;78.00;101654.59;4996325;28;20138;-48
2023/01/25 11:12:18;;;;;;;37.17;8.20;;;;;;;5.32;78.29;101681.47;5058921;28;20402;-49
2023/01/25 11:14:48;;;;;;;18.58;6.07;;;;;;;5.19;77.89;101692.84;5016766;28;20057;-47
2023/01/25 11:17:24;;;;;;;20.33;5.25;;;;;;;5.21;77.81;101695.50;5021374;28;20574;-45
2023/01/25 11:20:17;;;;;;;22.00;6.55;;;;;;;5.23;78.58;101709.28;5018081;28;20119;-47
2023/01/25 11:22:53;;;;;;;15.68;5.28;;;;;;;5.30;78.76;101706.19;5019094;28;20721;-48
2023/01/25 11:25:35;;;;;;;25.23;7.65;;;;;;;5.34;78.69;101708.09;5018329;28;20104;-45
2023/01/25 11:30:52;;;;;;;10.52;3.80;;;;;;;5.40;77.77;101715.19;5016272;27;20418;-45
2023/01/25 11:33:20;;;;;;;17.70;6.13;;;;;;;5.43;78.09;101727.31;4988536;28;20073;-46
2023/01/25 11:39:09;;;;;;;17.50;4.70;;;;;;;5.31;77.87;101718.25;5050875;27;20390;-49
2023/01/25 11:41:47;;;;;;;15.52;4.22;;;;;;;5.27;78.09;101712.06;5010145;28;20054;-48
2023/01/25 11:55:39;;;;;;;27.95;7.75;;;;;;;5.38;77.96;101698.84;5012224;28;20398;-49
2023/01/25 12:23:38;;;;;;;25.80;9.30;;;;;;;5.72;78.20;101661.78;5028866;27;20418;-47
2023/01/25 12:26:27;;;;;;;28.20;11.25;;;;;;;5.75;78.50;101668.75;5039876;28;20100;-48
2023/01/25 12:34:18;;;;;;;19.65;9.13;;;;;;;5.75;78.61;101658.47;5059423;27;20420;-47
2023/01/25 12:36:48;;;;;;;23.05;9.07;;;;;;;5.74;77.63;101651.56;5023761;28;20054;-47
2023/01/25 12:39:29;;;;;;;22.95;9.10;;;;;;;5.68;77.70;101643.59;5068862;28;20064;-49
2023/01/25 12:44:39;;;;;;;26.30;11.13;;;;;;;5.69;78.07;101629.91;5097300;27;20389;-47
2023/01/25 12:47:20;;;;;;;22.90;9.55;;;;;;;5.68;77.46;101635.88;5040553;28;20477;-49
2023/01/25 12:52:32;;;;;;;22.23;8.48;;;;;;;5.73;78.76;101612.13;5007681;28;20398;-47
2023/01/25 12:55:01;;;;;;;23.60;8.82;;;;;;;5.74;77.70;101597.56;5001406;28;20681;-47
2023/01/25 13:00:40;;;;;;;24.85;9.60;;;;;;;5.78;77.62;101581.47;5101429;27;20400;-48
2023/01/25 13:03:31;;;;;;;24.10;8.38;;;;;;;5.78;77.69;101576.31;5045303;28;20045;-54
2023/01/25 13:09:14;;;;;;;19.02;7.38;;;;;;;5.79;78.46;101566.09;5051315;28;20397;-46
2023/01/25 13:11:44;;;;;;;22.60;6.78;;;;;;;5.85;78.29;101575.75;5006799;28;20050;-45
2023/01/25 13:14:28;;;;;;;20.80;8.07;;;;;;;5.83;78.37;101564.53;5018430;28;20072;-46
2023/01/25 13:17:11;;;;;;;18.83;7.30;;;;;;;5.82;78.52;101551.59;5021489;28;20440;-49
2023/01/25 13:19:41;;;;;;;23.13;7.38;;;;;;;5.81;78.23;101540.41;5021577;28;20053;-48
2023/01/25 13:22:09;;;;;;;20.42;7.03;;;;;;;5.81;78.18;101537.84;5020315;28;20061;-46
2023/01/25 13:27:40;;;;;;;19.75;7.57;;;;;;;5.87;77.60;101517.53;5035600;27;21322;-46